Time;durP1;ratioP1;P1;durP2;ratioP2;P2;SDS_P1;SDS_P2;PMS_P1;PMS_P2;Temp;Humidity;BMP_temperature;BMP_pressure;BME280_temperature;BME280_humidity;BME280_pressure;Samples;Min_cycle;Max_cycle;Signal;HPM_P1;HPM_P2
2024/02/06 00:02:24;;;;;;;12.73;6.07;;;;;;;7.16;81.37;98548.75;5045765;28;20025;-76
2024/02/06 00:04:49;;;;;;;9.93;5.03;;;;;;;7.15;82.38;98560.41;5048711;28;20045;-77
2024/02/06 00:07:15;;;;;;;8.23;4.05;;;;;;;7.18;82.02;98551.97;5049219;28;20118;-76
2024/02/06 00:09:40;;;;;;;5.80;3.03;;;;;;;7.11;81.73;98557.41;5045771;28;20405;-76
2024/02/06 00:12:09;;;;;;;12.60;4.70;;;;;;;7.11;81.88;98541.50;5038520;28;20035;-76
2024/02/06 00:14:35;;;;;;;7.32;4.10;;;;;;;7.23;82.15;98550.22;5048113;28;20035;-76
2024/02/06 00:17:00;;;;;;;6.35;3.80;;;;;;;7.09;82.53;98542.75;5046729;28;20041;-77
2024/02/06 00:19:25;;;;;;;5.43;2.92;;;;;;;7.17;82.78;98548.50;5048223;28;20037;-76
2024/02/06 00:21:50;;;;;;;5.32;3.00;;;;;;;7.10;82.38;98552.34;5046539;28;20120;-77
2024/02/06 00:24:16;;;;;;;8.15;3.55;;;;;;;7.00;82.56;98538.84;5042895;28;20630;-77
2024/02/06 00:26:41;;;;;;;6.10;3.97;;;;;;;7.14;82.18;98542.88;5045553;28;20485;-78
2024/02/06 00:29:06;;;;;;;3.55;2.67;;;;;;;7.14;82.16;98541.00;5049161;28;20557;-77
2024/02/06 00:31:32;;;;;;;7.93;3.05;;;;;;;7.09;82.24;98540.94;5048906;28;20108;-78
2024/02/06 00:33:57;;;;;;;4.28;1.77;;;;;;;7.13;82.41;98538.59;5051578;28;20481;-77
2024/02/06 00:36:22;;;;;;;5.05;2.28;;;;;;;7.02;82.68;98542.06;5051191;28;20021;-76
2024/02/06 00:38:49;;;;;;;4.25;1.83;;;;;;;6.99;82.09;98537.25;5052433;28;20547;-77
2024/02/06 00:41:15;;;;;;;3.53;2.35;;;;;;;6.93;83.01;98532.84;5047107;28;20036;-77
2024/02/06 00:43:40;;;;;;;2.25;1.98;;;;;;;6.97;83.29;98545.41;5051636;28;20032;-76
2024/02/06 00:46:06;;;;;;;2.20;1.80;;;;;;;7.02;82.27;98540.25;5051699;28;20037;-76
2024/02/06 00:48:31;;;;;;;4.20;2.22;;;;;;;7.05;82.81;98515.09;5053464;28;20040;-77
2024/02/06 00:50:56;;;;;;;4.28;1.77;;;;;;;7.06;82.63;98522.81;5036427;28;20040;-76
2024/02/06 00:53:22;;;;;;;1.70;1.60;;;;;;;7.06;83.07;98540.56;5053411;28;20029;-75
2024/02/06 00:55:47;;;;;;;4.72;2.25;;;;;;;7.03;82.43;98515.34;5054091;28;20124;-76
2024/02/06 00:58:14;;;;;;;1.98;1.52;;;;;;;6.95;83.43;98528.94;5053741;28;20033;-76
2024/02/06 01:00:39;;;;;;;1.63;1.20;;;;;;;6.96;82.98;98511.19;5033168;28;20028;-76
2024/02/06 01:03:04;;;;;;;3.70;2.40;;;;;;;6.96;83.65;98527.91;5048878;28;20033;-76
2024/02/06 01:05:29;;;;;;;5.30;2.25;;;;;;;6.98;82.67;98511.75;5049678;28;20103;-76
2024/02/06 01:07:55;;;;;;;3.13;2.40;;;;;;;7.11;83.31;98524.75;5049701;28;20037;-77
2024/02/06 01:10:20;;;;;;;6.55;2.15;;;;;;;7.00;83.46;98515.78;5034552;28;20036;-77
2024/02/06 01:12:46;;;;;;;4.68;2.33;;;;;;;7.02;83.66;98521.66;5050366;28;20039;-76
2024/02/06 01:15:11;;;;;;;2.08;1.98;;;;;;;7.01;83.14;98516.59;5052228;28;20087;-76
2024/02/06 01:17:36;;;;;;;2.05;1.85;;;;;;;6.95;83.33;98515.66;5050685;28;20033;-76
2024/02/06 01:20:02;;;;;;;4.43;1.98;;;;;;;6.94;84.15;98508.78;5051481;28;20385;-77
2024/02/06 01:22:27;;;;;;;6.38;2.60;;;;;;;6.91;84.11;98535.75;5048037;28;20107;-76
2024/02/06 01:24:54;;;;;;;5.63;2.53;;;;;;;7.11;83.63;98508.84;5048116;28;20043;-77
2024/02/06 01:27:19;;;;;;;4.95;2.28;;;;;;;6.98;83.07;98483.38;5053057;28;20128;-77
2024/02/06 01:29:44;;;;;;;4.55;3.42;;;;;;;6.93;83.79;98506.31;5053676;28;20128;-76
2024/02/06 01:32:10;;;;;;;1.65;1.55;;;;;;;6.86;83.88;98519.72;5046713;28;20039;-76
2024/02/06 01:34:35;;;;;;;5.85;3.25;;;;;;;6.91;83.90;98503.09;5053838;28;20021;-77
2024/02/06 01:37:00;;;;;;;4.57;3.10;;;;;;;6.89;83.66;98495.38;5051623;28;20086;-76
2024/02/06 01:39:26;;;;;;;6.28;2.67;;;;;;;7.06;84.08;98503.41;5042576;28;20032;-75
2024/02/06 01:41:52;;;;;;;5.88;2.17;;;;;;;6.95;84.35;98498.94;5044080;28;20037;-77
2024/02/06 01:44:18;;;;;;;5.40;2.67;;;;;;;7.04;83.93;98489.59;5044542;28;20061;-77
2024/02/06 01:46:43;;;;;;;7.07;3.15;;;;;;;6.99;84.11;98495.59;5050377;28;20060;-76
2024/02/06 01:49:10;;;;;;;3.50;2.65;;;;;;;7.01;83.92;98490.84;5047477;28;20056;-78
2024/02/06 01:51:39;;;;;;;3.17;2.65;;;;;;;6.97;83.75;98486.28;5045422;28;20458;-77
2024/02/06 01:54:05;;;;;;;7.80;2.75;;;;;;;6.91;84.77;98477.38;5047001;28;20629;-77
2024/02/06 01:56:33;;;;;;;5.75;3.45;;;;;;;6.96;83.86;98468.72;5032012;28;20120;-76
2024/02/06 01:58:59;;;;;;;6.63;2.50;;;;;;;6.82;85.15;98470.81;5051114;28;20409;-77
2024/02/06 02:01:25;;;;;;;3.55;2.92;;;;;;;6.77;84.38;98460.91;5044116;28;20025;-77
2024/02/06 02:03:53;;;;;;;4.38;2.55;;;;;;;6.88;84.27;98469.88;5044978;28;20025;-77
2024/02/06 02:06:21;;;;;;;4.18;2.75;;;;;;;6.93;84.93;98477.97;5045886;28;20029;-78
2024/02/06 02:08:46;;;;;;;6.43;3.45;;;;;;;6.89;84.73;98476.00;5041911;28;20444;-76
2024/02/06 02:11:12;;;;;;;4.95;2.72;;;;;;;6.80;85.61;98467.59;5045854;28;20037;-77
2024/02/06 02:13:38;;;;;;;7.07;2.65;;;;;;;6.82;84.84;98473.47;5049789;28;20390;-75
2024/02/06 02:16:05;;;;;;;4.63;2.20;;;;;;;6.83;84.98;98475.09;5051880;28;20115;-76
2024/02/06 02:18:35;;;;;;;6.80;3.80;;;;;;;6.87;84.47;98441.75;5047730;28;20029;-76
2024/02/06 02:21:10;;;;;;;10.60;3.05;;;;;;;6.90;85.30;98448.44;5048296;28;20108;-76
2024/02/06 02:23:40;;;;;;;5.72;3.55;;;;;;;6.74;85.40;98426.09;5049591;28;20033;-78
2024/02/06 02:26:08;;;;;;;6.90;3.65;;;;;;;6.93;85.00;98440.00;5027015;28;20032;-75
2024/02/06 02:28:37;;;;;;;5.35;3.38;;;;;;;6.86;84.50;98448.09;5047969;28;20037;-76
2024/02/06 02:31:05;;;;;;;6.88;3.90;;;;;;;6.94;84.87;98455.72;5049372;28;20029;-77
2024/02/06 02:33:31;;;;;;;9.65;3.83;;;;;;;6.94;84.91;98442.44;5051972;28;20035;-76
2024/02/06 02:35:57;;;;;;;6.35;3.58;;;;;;;6.91;85.11;98429.63;5049703;28;20074;-78
2024/02/06 02:38:23;;;;;;;8.70;4.15;;;;;;;7.01;85.08;98437.00;5052600;28;20037;-77
2024/02/06 02:40:48;;;;;;;5.57;3.58;;;;;;;7.02;84.19;98428.00;5049166;28;20541;-77
2024/02/06 02:43:14;;;;;;;8.40;3.42;;;;;;;6.97;84.51;98420.72;5050806;28;20021;-77
2024/02/06 02:45:39;;;;;;;7.18;3.80;;;;;;;7.04;84.59;98429.38;5053165;28;20032;-78
2024/02/06 02:48:05;;;;;;;10.52;3.50;;;;;;;6.99;84.81;98426.59;5051426;28;20125;-78
2024/02/06 02:50:30;;;;;;;7.53;3.55;;;;;;;7.02;84.58;98423.50;5050283;28;20103;-76
2024/02/06 02:52:56;;;;;;;7.30;2.97;;;;;;;7.01;84.31;98413.13;5045941;28;20021;-76
2024/02/06 02:55:21;;;;;;;8.25;3.72;;;;;;;6.98;84.66;98417.03;5048133;28;20039;-76
2024/02/06 02:57:46;;;;;;;4.53;2.75;;;;;;;6.96;85.14;98389.94;5050487;28;20032;-76
2024/02/06 03:00:12;;;;;;;8.18;2.97;;;;;;;7.00;84.70;98409.66;5051832;28;20021;-77
2024/02/06 03:02:38;;;;;;;16.40;3.75;;;;;;;6.92;84.89;98388.00;5050005;28;20028;-76
2024/02/06 03:05:03;;;;;;;3.60;2.28;;;;;;;7.01;84.17;98392.69;5049122;28;20409;-77
2024/02/06 03:07:29;;;;;;;7.15;2.92;;;;;;;6.98;84.50;98400.31;5046657;28;20038;-77
2024/02/06 03:09:54;;;;;;;8.32;3.60;;;;;;;6.93;85.33;98387.75;5050114;28;20439;-76
2024/02/06 03:12:20;;;;;;;4.97;3.00;;;;;;;6.93;85.15;98379.81;5047849;28;20036;-76
2024/02/06 03:14:45;;;;;;;6.93;3.55;;;;;;;7.06;84.51;98398.09;5050324;28;20028;-77
2024/02/06 03:17:10;;;;;;;7.85;3.25;;;;;;;6.92;84.62;98366.78;5049885;28;20029;-77
2024/02/06 03:19:36;;;;;;;6.38;3.50;;;;;;;7.04;84.98;98380.78;5047533;28;20512;-76
2024/02/06 03:22:02;;;;;;;8.02;2.92;;;;;;;7.05;84.48;98383.22;5048061;28;20115;-76
2024/02/06 03:24:28;;;;;;;6.15;3.05;;;;;;;6.99;84.93;98384.16;5047867;28;20532;-77
2024/02/06 03:26:55;;;;;;;6.85;3.17;;;;;;;7.04;83.51;98367.53;5047487;28;20029;-76
2024/02/06 03:29:21;;;;;;;7.78;3.33;;;;;;;7.02;84.38;98366.97;5049801;28;20029;-76
2024/02/06 03:31:46;;;;;;;6.00;3.28;;;;;;;7.02;84.22;98381.03;5048992;28;20059;-76
2024/02/06 03:34:11;;;;;;;6.72;2.70;;;;;;;6.98;84.30;98371.13;5047036;28;20047;-77
2024/02/06 03:36:42;;;;;;;8.50;3.95;;;;;;;7.06;84.45;98384.81;5048025;28;20390;-76
2024/02/06 03:39:08;;;;;;;7.55;3.33;;;;;;;7.01;83.96;98371.47;5049162;28;20167;-76
2024/02/06 03:41:33;;;;;;;9.05;3.78;;;;;;;7.00;83.83;98380.47;5048227;28;20025;-78
2024/02/06 03:43:59;;;;;;;4.32;2.80;;;;;;;7.00;83.99;98372.50;5049221;28;20036;-78
2024/02/06 03:46:24;;;;;;;2.85;2.30;;;;;;;7.04;84.09;98372.84;5044787;28;20044;-77
2024/02/06 03:48:49;;;;;;;7.95;3.58;;;;;;;7.02;84.34;98370.44;5042615;28;20025;-78
2024/02/06 03:51:15;;;;;;;9.65;2.15;;;;;;;7.04;84.10;98373.66;5045868;28;20039;-76
2024/02/06 03:53:40;;;;;;;5.80;3.55;;;;;;;6.99;83.94;98362.16;5045862;28;20147;-76
2024/02/06 03:56:06;;;;;;;6.47;3.20;;;;;;;7.04;83.79;98365.69;5045375;28;20035;-77
2024/02/06 03:58:31;;;;;;;7.70;3.63;;;;;;;7.01;83.90;98338.84;5044527;28;20115;-76
2024/02/06 04:00:56;;;;;;;6.18;3.33;;;;;;;6.99;84.58;98352.31;5041571;28;20397;-77
2024/02/06 04:03:22;;;;;;;4.65;2.70;;;;;;;7.05;83.67;98367.31;5044985;28;20078;-76
2024/02/06 04:05:47;;;;;;;8.23;3.88;;;;;;;7.17;83.58;98359.28;5045042;28;20044;-77
2024/02/06 04:08:13;;;;;;;11.15;5.18;;;;;;;7.15;83.17;98356.06;5047173;28;20500;-77
2024/02/06 04:10:38;;;;;;;10.40;3.40;;;;;;;7.05;83.60;98351.38;5055408;28;20037;-76
2024/02/06 04:13:06;;;;;;;6.90;3.30;;;;;;;7.17;83.83;98364.59;5047850;28;20021;-77
2024/02/06 04:15:31;;;;;;;7.47;3.47;;;;;;;7.09;82.82;98341.91;5043334;28;20033;-77
2024/02/06 04:17:57;;;;;;;8.48;3.95;;;;;;;7.16;83.39;98355.84;5048082;28;20501;-77
2024/02/06 04:20:23;;;;;;;6.88;3.03;;;;;;;7.21;82.58;98357.75;5048188;28;20532;-76
2024/02/06 04:22:48;;;;;;;6.55;3.72;;;;;;;7.16;82.59;98352.38;5048531;28;20025;-77
2024/02/06 04:25:13;;;;;;;9.95;3.67;;;;;;;7.19;82.83;98357.19;5048205;28;20037;-78
2024/02/06 04:27:39;;;;;;;5.90;2.97;;;;;;;7.09;83.61;98347.22;5050979;28;20037;-77
2024/02/06 04:30:05;;;;;;;9.52;3.63;;;;;;;7.15;83.60;98348.91;5049309;28;20037;-78
2024/02/06 04:32:31;;;;;;;7.15;3.83;;;;;;;7.20;83.03;98346.34;5048654;28;20156;-77
2024/02/06 04:34:56;;;;;;;7.38;3.50;;;;;;;7.08;82.88;98334.16;5050168;28;20104;-77
2024/02/06 04:37:22;;;;;;;8.02;3.28;;;;;;;7.07;83.57;98346.66;5049866;28;20039;-77
2024/02/06 04:39:47;;;;;;;10.90;4.45;;;;;;;7.12;83.64;98346.72;5051742;28;20037;-76
2024/02/06 04:42:13;;;;;;;12.82;3.55;;;;;;;7.18;83.22;98348.44;5043965;28;20029;-77
2024/02/06 04:44:38;;;;;;;10.40;4.35;;;;;;;7.13;83.45;98344.88;5052045;28;20033;-77
2024/02/06 04:47:04;;;;;;;13.27;3.47;;;;;;;7.20;83.04;98332.28;5050293;28;20028;-77
2024/02/06 04:49:29;;;;;;;8.68;3.70;;;;;;;7.14;82.64;98341.19;5048544;28;20132;-77
2024/02/06 04:51:54;;;;;;;11.48;3.75;;;;;;;7.16;82.80;98339.91;5046807;28;20039;-76
2024/02/06 04:54:21;;;;;;;9.32;3.58;;;;;;;7.18;82.89;98329.88;5047626;28;20094;-77
2024/02/06 04:56:46;;;;;;;4.65;3.22;;;;;;;7.15;82.90;98340.94;5048798;28;20032;-76
2024/02/06 04:59:13;;;;;;;8.65;3.22;;;;;;;7.10;83.64;98338.19;5048560;28;20025;-76
2024/02/06 05:01:39;;;;;;;6.93;3.60;;;;;;;7.23;83.20;98337.91;5061803;28;20025;-75
2024/02/06 05:04:04;;;;;;;17.35;4.93;;;;;;;7.16;83.00;98337.25;5046269;28;20047;-76
2024/02/06 05:06:30;;;;;;;9.65;5.10;;;;;;;7.20;82.58;98351.66;5050471;28;20040;-76
2024/02/06 05:08:55;;;;;;;9.38;3.15;;;;;;;7.18;82.49;98340.47;5051058;28;20025;-76
2024/02/06 05:11:21;;;;;;;8.02;3.63;;;;;;;7.21;83.05;98342.63;5042694;28;20040;-76
2024/02/06 05:13:46;;;;;;;14.73;3.40;;;;;;;7.26;82.68;98341.91;5049659;28;20485;-76
2024/02/06 05:16:11;;;;;;;6.00;2.80;;;;;;;7.21;82.65;98334.69;5049832;28;20103;-76
2024/02/06 05:18:37;;;;;;;8.32;3.80;;;;;;;7.24;82.77;98325.44;5052558;28;20028;-77
2024/02/06 05:21:02;;;;;;;8.95;3.20;;;;;;;7.27;82.96;98332.94;5052084;28;20104;-76
2024/02/06 05:23:27;;;;;;;6.82;3.65;;;;;;;7.20;82.73;98319.81;5048636;28;20025;-76
2024/02/06 05:25:53;;;;;;;5.18;3.20;;;;;;;7.17;82.71;98320.28;5053017;28;20044;-77
2024/02/06 05:28:20;;;;;;;5.82;3.75;;;;;;;7.17;83.43;98311.50;5057181;28;20032;-76
2024/02/06 05:30:46;;;;;;;13.80;3.78;;;;;;;7.18;83.60;98329.88;5052468;28;20029;-75
2024/02/06 05:33:11;;;;;;;6.68;3.50;;;;;;;7.19;83.53;98320.03;5053694;28;20071;-76
2024/02/06 05:35:37;;;;;;;7.97;3.80;;;;;;;7.20;83.43;98326.97;5057001;28;20017;-76
2024/02/06 05:38:02;;;;;;;7.22;2.78;;;;;;;7.21;83.30;98316.09;5049184;28;20451;-75
2024/02/06 05:40:30;;;;;;;9.57;4.07;;;;;;;7.12;83.62;98312.22;5047731;28;20053;-75
2024/02/06 05:42:55;;;;;;;10.88;3.58;;;;;;;7.12;84.22;98306.91;5051762;28;20028;-75
2024/02/06 05:45:21;;;;;;;8.77;3.67;;;;;;;7.10;83.47;98303.69;5050136;28;20082;-75
2024/02/06 05:47:48;;;;;;;7.60;3.28;;;;;;;7.18;84.03;98303.31;5046872;28;20120;-75
2024/02/06 05:50:13;;;;;;;7.15;3.10;;;;;;;7.10;83.91;98300.25;5054713;28;20040;-75
2024/02/06 05:52:39;;;;;;;12.52;2.97;;;;;;;7.24;84.06;98310.31;5052138;28;20052;-75
2024/02/06 05:55:06;;;;;;;12.93;3.45;;;;;;;7.06;84.18;98307.06;5053241;28;20052;-75
2024/02/06 05:57:32;;;;;;;3.33;2.70;;;;;;;7.15;84.41;98308.28;5052411;28;20043;-75
2024/02/06 05:59:57;;;;;;;6.88;2.95;;;;;;;7.04;84.56;98302.00;5046960;28;20052;-75
2024/02/06 06:02:22;;;;;;;9.23;2.95;;;;;;;7.11;84.70;98302.66;5051401;28;20036;-75
2024/02/06 06:04:48;;;;;;;8.63;3.40;;;;;;;7.11;84.11;98294.72;5061204;28;20493;-75
2024/02/06 06:07:14;;;;;;;9.77;4.20;;;;;;;7.02;84.98;98292.66;5057060;28;20580;-76
2024/02/06 06:09:39;;;;;;;9.43;3.30;;;;;;;7.19;84.47;98285.53;5050135;28;20036;-75
2024/02/06 06:12:05;;;;;;;6.75;3.50;;;;;;;7.11;84.26;98284.09;5053536;28;20040;-75
2024/02/06 06:14:30;;;;;;;9.75;3.28;;;;;;;7.15;85.07;98285.22;5055603;28;20171;-75
2024/02/06 06:16:55;;;;;;;7.72;3.25;;;;;;;7.14;84.96;98294.22;5051441;28;20036;-77
2024/02/06 06:19:21;;;;;;;9.30;3.08;;;;;;;7.04;84.52;98283.44;5056501;28;20040;-75
2024/02/06 06:21:46;;;;;;;5.45;2.47;;;;;;;7.14;84.52;98291.56;5053252;28;20056;-75
2024/02/06 06:24:12;;;;;;;4.88;2.65;;;;;;;7.16;84.93;98291.34;5054769;28;20037;-76
2024/02/06 06:26:39;;;;;;;10.02;2.97;;;;;;;7.11;84.41;98292.06;5055989;28;20029;-77
2024/02/06 06:29:05;;;;;;;5.15;3.10;;;;;;;7.06;85.05;98294.63;5052653;28;20083;-75
2024/02/06 06:31:30;;;;;;;6.35;2.70;;;;;;;7.08;85.36;98297.00;5055517;28;20029;-77
2024/02/06 06:33:55;;;;;;;4.68;2.63;;;;;;;7.00;85.01;98284.97;5055817;28;20047;-75
2024/02/06 06:36:21;;;;;;;9.05;3.00;;;;;;;7.01;85.09;98270.63;5029441;28;20041;-82
2024/02/06 06:38:46;;;;;;;7.53;2.80;;;;;;;7.10;84.74;98281.69;5041534;28;20024;-79
2024/02/06 06:41:12;;;;;;;3.85;2.83;;;;;;;7.06;84.66;98284.00;5055173;28;20076;-75
2024/02/06 06:43:37;;;;;;;7.30;2.70;;;;;;;6.98;84.80;98271.13;5054454;28;20033;-78
2024/02/06 06:46:04;;;;;;;8.23;2.75;;;;;;;7.10;84.16;98277.16;5054808;28;20028;-75
2024/02/06 06:48:33;;;;;;;7.90;3.20;;;;;;;7.10;84.70;98273.72;5055002;28;20111;-75
2024/02/06 06:50:58;;;;;;;5.38;2.58;;;;;;;7.18;84.52;98278.63;5048852;28;20385;-75
2024/02/06 06:53:24;;;;;;;9.02;2.83;;;;;;;7.09;84.95;98288.84;5045309;28;20044;-75
2024/02/06 06:55:49;;;;;;;9.35;2.80;;;;;;;7.05;85.38;98274.44;5055280;28;20037;-75
2024/02/06 06:58:14;;;;;;;9.43;3.67;;;;;;;7.12;84.96;98282.25;5046772;28;20026;-74
2024/02/06 07:00:40;;;;;;;10.95;3.00;;;;;;;7.08;85.03;98266.00;5050843;28;20040;-75
2024/02/06 07:03:07;;;;;;;6.10;2.83;;;;;;;7.10;85.59;98273.72;5046195;28;20056;-75
2024/02/06 07:05:32;;;;;;;5.60;3.05;;;;;;;7.06;85.51;98281.34;5050902;28;20029;-74
2024/02/06 07:07:58;;;;;;;8.07;2.90;;;;;;;7.12;84.88;98272.41;5045978;28;20097;-75
2024/02/06 07:10:23;;;;;;;11.00;3.65;;;;;;;6.98;86.11;98252.56;5049326;28;20438;-75
2024/02/06 07:12:49;;;;;;;8.98;3.53;;;;;;;7.08;85.66;98271.28;5047760;28;20086;-75
2024/02/06 07:15:14;;;;;;;6.28;3.15;;;;;;;7.07;85.59;98269.69;5048580;28;20133;-75
2024/02/06 07:17:41;;;;;;;8.88;3.45;;;;;;;7.10;85.15;98268.41;5049618;28;20036;-76
2024/02/06 07:20:07;;;;;;;7.72;3.55;;;;;;;7.16;85.95;98267.47;5047330;28;20029;-76
2024/02/06 07:22:33;;;;;;;12.75;3.50;;;;;;;7.14;85.52;98267.66;5047428;28;20097;-74
2024/02/06 07:24:59;;;;;;;15.15;3.47;;;;;;;7.15;85.34;98279.09;5045301;28;20205;-75
2024/02/06 07:27:25;;;;;;;9.95;2.95;;;;;;;7.08;85.68;98267.81;5051764;28;20482;-76
2024/02/06 07:29:50;;;;;;;10.00;4.50;;;;;;;7.02;86.03;98266.94;5016861;28;20025;-75
2024/02/06 07:32:16;;;;;;;8.52;3.95;;;;;;;7.14;85.69;98280.94;5051426;28;20505;-75
2024/02/06 07:34:42;;;;;;;13.48;3.88;;;;;;;7.09;86.57;98275.56;5050197;28;20079;-75
2024/02/06 07:37:07;;;;;;;9.30;3.92;;;;;;;6.96;86.83;98278.53;5048723;28;20486;-75
2024/02/06 07:39:35;;;;;;;7.70;3.75;;;;;;;7.04;86.88;98272.81;5049258;28;20106;-75
2024/02/06 07:42:00;;;;;;;11.93;3.03;;;;;;;7.02;87.55;98277.56;5048961;28;20033;-75
2024/02/06 07:44:25;;;;;;;6.55;3.25;;;;;;;7.09;87.27;98278.22;5042119;28;20410;-75
2024/02/06 07:46:51;;;;;;;5.82;3.30;;;;;;;7.06;87.42;98270.72;5031831;28;20175;-75
2024/02/06 07:49:17;;;;;;;9.45;3.75;;;;;;;6.98;87.48;98275.63;5048792;28;20064;-75
2024/02/06 07:51:42;;;;;;;9.57;3.47;;;;;;;6.87;88.15;98264.03;5031580;28;20413;-75
2024/02/06 07:54:08;;;;;;;10.00;4.55;;;;;;;7.00;87.47;98268.22;5049872;28;20033;-75
2024/02/06 07:56:33;;;;;;;5.07;3.22;;;;;;;7.00;87.53;98269.03;5046696;28;20029;-75
2024/02/06 07:58:58;;;;;;;4.60;2.95;;;;;;;6.97;88.25;98260.78;5049820;28;20036;-76
2024/02/06 08:01:24;;;;;;;7.05;3.15;;;;;;;6.89;87.81;98264.59;5042114;28;20074;-75
2024/02/06 08:03:50;;;;;;;8.95;2.95;;;;;;;6.90;88.47;98257.47;5046393;28;20036;-75
2024/02/06 08:06:17;;;;;;;7.15;3.45;;;;;;;6.91;88.87;98264.34;5032055;28;20053;-76
2024/02/06 08:08:42;;;;;;;7.28;3.33;;;;;;;6.89;88.57;98261.94;5049847;28;20021;-75
2024/02/06 08:11:08;;;;;;;6.55;3.60;;;;;;;6.88;87.75;98260.31;5049838;28;20039;-75
2024/02/06 08:13:33;;;;;;;9.25;3.40;;;;;;;6.96;88.34;98262.63;5049951;28;20028;-75
2024/02/06 08:15:58;;;;;;;7.13;2.85;;;;;;;7.04;87.24;98250.78;5049859;28;20045;-75
2024/02/06 08:18:24;;;;;;;7.45;3.53;;;;;;;7.01;88.09;98257.38;5048365;28;20050;-75
2024/02/06 08:20:49;;;;;;;8.45;3.50;;;;;;;6.98;88.09;98249.09;5046859;28;20769;-75
2024/02/06 08:23:14;;;;;;;10.63;4.38;;;;;;;6.96;87.96;98243.22;5049599;28;20389;-75
2024/02/06 08:25:40;;;;;;;9.20;3.22;;;;;;;6.96;88.25;98245.88;5015038;28;20048;-75
2024/02/06 08:28:05;;;;;;;6.13;2.65;;;;;;;6.96;87.90;98243.22;5049857;28;20037;-76
2024/02/06 08:30:31;;;;;;;9.93;3.40;;;;;;;6.96;87.97;98244.03;5050923;28;20063;-76
2024/02/06 08:32:56;;;;;;;11.40;3.78;;;;;;;6.96;87.45;98228.13;5051213;28;20070;-75
2024/02/06 08:35:22;;;;;;;8.65;3.78;;;;;;;7.07;87.39;98243.16;5050340;28;20112;-75
2024/02/06 08:37:47;;;;;;;7.00;3.63;;;;;;;6.94;87.58;98251.44;5050103;28;20061;-75
2024/02/06 08:40:13;;;;;;;7.72;3.30;;;;;;;7.01;88.18;98243.31;5045129;28;20387;-75
2024/02/06 08:42:39;;;;;;;16.00;3.83;;;;;;;7.07;87.33;98235.22;5050676;28;20504;-76
2024/02/06 08:45:05;;;;;;;11.32;3.72;;;;;;;6.90;87.88;98225.63;5052946;28;20115;-75
2024/02/06 08:47:30;;;;;;;12.35;3.45;;;;;;;6.99;88.30;98237.47;5049117;28;20108;-74
2024/02/06 08:49:56;;;;;;;8.80;3.65;;;;;;;7.03;88.49;98238.59;5033286;28;20061;-75
2024/02/06 08:52:22;;;;;;;4.13;1.58;;;;;;;7.04;87.54;98234.88;5053128;28;20033;-75
2024/02/06 08:54:47;;;;;;;10.98;3.70;;;;;;;6.97;88.16;98229.72;5054566;28;20070;-75
2024/02/06 08:57:13;;;;;;;9.20;3.38;;;;;;;6.97;88.05;98235.03;5052267;28;20102;-75
2024/02/06 08:59:38;;;;;;;9.50;3.33;;;;;;;6.96;88.57;98235.28;5063192;28;20066;-75
2024/02/06 09:02:04;;;;;;;8.65;3.85;;;;;;;7.08;88.05;98246.59;5052996;28;20108;-75
2024/02/06 09:04:30;;;;;;;6.55;2.53;;;;;;;7.09;88.55;98246.38;5045258;28;20064;-75
2024/02/06 09:06:55;;;;;;;5.35;2.97;;;;;;;7.03;88.80;98236.75;5053472;28;20029;-75
2024/02/06 09:09:22;;;;;;;7.43;3.33;;;;;;;7.05;88.89;98234.66;5052239;28;20033;-75
2024/02/06 09:11:48;;;;;;;9.88;3.88;;;;;;;6.99;87.91;98232.16;5053143;28;20060;-75
2024/02/06 09:14:14;;;;;;;7.93;3.05;;;;;;;7.08;88.57;98244.75;5053714;28;20040;-75
2024/02/06 09:16:39;;;;;;;11.38;3.20;;;;;;;7.12;88.53;98231.84;5052738;28;20033;-75
2024/02/06 09:19:05;;;;;;;7.55;3.55;;;;;;;7.19;88.33;98241.22;5061876;28;20032;-76
2024/02/06 09:21:30;;;;;;;9.38;2.90;;;;;;;7.03;88.57;98236.75;5056627;28;20055;-76
2024/02/06 09:23:56;;;;;;;9.38;3.30;;;;;;;7.17;88.60;98230.06;5055020;28;20044;-75
2024/02/06 09:26:21;;;;;;;7.50;3.35;;;;;;;7.21;88.22;98243.63;5055672;28;20482;-75
2024/02/06 09:28:47;;;;;;;5.80;3.05;;;;;;;7.17;87.64;98238.00;5053192;28;20486;-75
2024/02/06 09:31:12;;;;;;;6.18;3.30;;;;;;;7.19;88.21;98238.56;5051374;28;20032;-75
2024/02/06 09:33:38;;;;;;;4.90;3.10;;;;;;;7.14;87.74;98230.53;5049113;28;20103;-75
2024/02/06 09:36:05;;;;;;;5.82;3.63;;;;;;;7.08;88.05;98234.16;5052581;28;20443;-75
2024/02/06 09:38:31;;;;;;;8.90;3.30;;;;;;;7.12;88.62;98231.84;5052775;28;20025;-75
2024/02/06 09:40:56;;;;;;;6.30;3.10;;;;;;;7.15;88.13;98233.97;5052494;28;20059;-75
2024/02/06 09:43:23;;;;;;;5.85;3.35;;;;;;;7.15;87.60;98231.34;5045984;28;20040;-75
2024/02/06 09:45:49;;;;;;;7.25;3.65;;;;;;;7.25;88.05;98229.63;5049943;28;20698;-75
2024/02/06 09:48:14;;;;;;;13.75;3.80;;;;;;;7.18;87.81;98226.38;5050912;28;20474;-75
2024/02/06 09:50:40;;;;;;;9.73;5.05;;;;;;;7.20;87.91;98232.22;5034630;28;20048;-75
2024/02/06 09:53:08;;;;;;;7.38;3.45;;;;;;;7.19;87.76;98225.31;5052429;28;20395;-75
2024/02/06 09:55:35;;;;;;;7.35;3.40;;;;;;;7.21;87.79;98228.53;5052593;28;20398;-75
2024/02/06 09:58:03;;;;;;;8.32;3.17;;;;;;;7.21;87.69;98225.88;5052055;28;20032;-75
2024/02/06 10:00:29;;;;;;;5.40;3.58;;;;;;;7.19;88.17;98219.19;5052013;28;20061;-75
2024/02/06 10:02:59;;;;;;;8.30;3.80;;;;;;;7.18;87.65;98225.56;5051365;28;20032;-75
2024/02/06 10:05:33;;;;;;;9.65;3.38;;;;;;;7.22;87.66;98226.69;5048020;28;20112;-75
2024/02/06 10:07:59;;;;;;;7.03;3.53;;;;;;;7.23;87.92;98221.13;5052096;28;20036;-75
2024/02/06 10:10:25;;;;;;;7.68;3.50;;;;;;;7.20;87.59;98218.16;5052163;28;20619;-75
2024/02/06 10:12:51;;;;;;;8.07;3.47;;;;;;;7.20;87.37;98223.47;5052067;28;20056;-75
2024/02/06 10:15:18;;;;;;;4.85;2.85;;;;;;;7.14;87.17;98216.47;5051852;28;20118;-75
2024/02/06 10:17:43;;;;;;;9.85;2.97;;;;;;;7.18;87.14;98221.06;5033211;28;20025;-75
2024/02/06 10:20:10;;;;;;;11.15;3.83;;;;;;;7.29;87.71;98227.31;5051849;28;20041;-75
2024/02/06 10:22:37;;;;;;;7.28;3.72;;;;;;;7.33;87.07;98223.94;5051886;28;20049;-75
2024/02/06 10:25:03;;;;;;;6.20;2.90;;;;;;;7.33;87.28;98221.28;5045740;28;20025;-75
2024/02/06 10:27:31;;;;;;;9.93;4.18;;;;;;;7.18;88.03;98222.91;5051423;28;20432;-75
2024/02/06 10:30:01;;;;;;;9.70;4.07;;;;;;;7.38;88.12;98229.31;5051527;28;20033;-75
2024/02/06 10:32:33;;;;;;;4.22;3.03;;;;;;;7.29;88.64;98236.09;5050748;28;20029;-75
2024/02/06 10:35:02;;;;;;;8.23;3.95;;;;;;;7.20;88.55;98224.28;5052141;28;20082;-74
2024/02/06 10:37:28;;;;;;;13.38;4.60;;;;;;;7.36;88.41;98234.06;5051784;28;20760;-76
2024/02/06 10:39:54;;;;;;;11.52;5.03;;;;;;;7.29;88.19;98225.47;5052924;28;20029;-75
2024/02/06 10:42:20;;;;;;;7.45;3.72;;;;;;;7.21;88.50;98233.81;5047564;28;20036;-75
2024/02/06 10:44:46;;;;;;;7.82;3.65;;;;;;;7.19;89.20;98214.69;5052069;28;20043;-75
2024/02/06 10:47:15;;;;;;;6.82;3.42;;;;;;;7.27;88.47;98224.09;5034557;28;20040;-75
2024/02/06 10:49:41;;;;;;;8.13;3.25;;;;;;;7.29;88.56;98224.66;5050303;28;20044;-75
2024/02/06 10:52:08;;;;;;;13.98;4.07;;;;;;;7.26;88.85;98219.84;5050704;28;20037;-75
2024/02/06 10:54:34;;;;;;;6.78;3.03;;;;;;;7.30;89.01;98215.63;5053378;28;20108;-75
2024/02/06 10:57:05;;;;;;;8.10;3.58;;;;;;;7.38;89.15;98221.34;5053860;28;20489;-75
2024/02/06 10:59:51;;;;;;;8.88;3.30;;;;;;;7.33;88.63;98196.59;5040881;28;20492;-75
2024/02/06 11:02:25;;;;;;;9.32;3.60;;;;;;;7.33;88.28;98191.28;5049306;28;20025;-75
2024/02/06 11:04:57;;;;;;;9.45;3.60;;;;;;;7.27;89.28;98211.63;5050158;28;20044;-75
2024/02/06 11:07:26;;;;;;;4.40;3.20;;;;;;;7.25;89.54;98200.44;5062205;28;20570;-75
2024/02/06 11:09:52;;;;;;;8.15;4.22;;;;;;;7.27;88.97;98169.16;5054655;28;20432;-75
2024/02/06 11:12:18;;;;;;;7.13;3.60;;;;;;;7.25;89.27;98181.09;5055100;28;20379;-75
2024/02/06 11:14:48;;;;;;;5.72;3.20;;;;;;;7.17;89.64;98178.81;5051418;28;20032;-75
2024/02/06 11:17:14;;;;;;;10.48;3.47;;;;;;;7.17;90.77;98163.72;5053856;28;20033;-76
2024/02/06 11:19:51;;;;;;;6.05;3.20;;;;;;;7.18;90.66;98165.34;5050509;28;20090;-75
2024/02/06 11:22:24;;;;;;;8.05;3.38;;;;;;;7.23;90.02;98152.13;5043860;28;20029;-75
2024/02/06 11:24:51;;;;;;;8.13;3.30;;;;;;;7.41;90.36;98154.50;5048158;28;20524;-75
2024/02/06 11:27:17;;;;;;;4.25;2.83;;;;;;;7.38;89.20;98141.69;5047809;28;20036;-75
2024/02/06 11:29:44;;;;;;;6.90;3.40;;;;;;;7.32;89.60;98139.22;5054015;28;20033;-75
2024/02/06 11:32:09;;;;;;;4.40;3.13;;;;;;;7.36;90.44;98151.75;5052404;28;20025;-75
2024/02/06 11:34:46;;;;;;;7.78;3.35;;;;;;;7.43;89.76;98147.09;5051240;28;20516;-75
2024/02/06 11:37:22;;;;;;;7.35;3.03;;;;;;;7.57;89.54;98156.31;5049722;28;20099;-75